sensor_id;sensor_type;location;lat;lon;timestamp;pressure;altitude;pressure_sealevel;temperature;humidity
72798;BME280;61084;55.816;37.036;2022-10-16T00:00:44;100696.09;;;3.68;67.82
72798;BME280;61084;55.816;37.036;2022-10-16T00:03:10;100694.38;;;3.67;68.23
72798;BME280;61084;55.816;37.036;2022-10-16T00:05:41;100697.84;;;3.63;68.13
72798;BME280;61084;55.816;37.036;2022-10-16T00:08:08;100696.13;;;3.60;68.29
72798;BME280;61084;55.816;37.036;2022-10-16T00:10:34;100703.91;;;3.59;67.98
72798;BME280;61084;55.816;37.036;2022-10-16T00:13:01;100697.00;;;3.55;67.99
72798;BME280;61084;55.816;37.036;2022-10-16T00:15:26;100703.94;;;3.54;68.39
72798;BME280;61084;55.816;37.036;2022-10-16T00:17:52;100710.00;;;3.53;68.11
72798;BME280;61084;55.816;37.036;2022-10-16T00:20:18;100710.84;;;3.52;68.12
72798;BME280;61084;55.816;37.036;2022-10-16T00:23:03;100711.75;;;3.50;68.00
72798;BME280;61084;55.816;37.036;2022-10-16T00:25:31;100711.75;;;3.50;67.78
72798;BME280;61084;55.816;37.036;2022-10-16T00:27:59;100716.94;;;3.50;67.71
72798;BME280;61084;55.816;37.036;2022-10-16T00:30:25;100710.91;;;3.48;67.92
72798;BME280;61084;55.816;37.036;2022-10-16T00:32:53;100715.19;;;3.46;68.20
72798;BME280;61084;55.816;37.036;2022-10-16T00:35:19;100718.69;;;3.45;67.98
72798;BME280;61084;55.816;37.036;2022-10-16T00:37:45;100717.81;;;3.43;68.10
72798;BME280;61084;55.816;37.036;2022-10-16T00:40:10;100719.56;;;3.38;67.82
72798;BME280;61084;55.816;37.036;2022-10-16T00:42:36;100724.78;;;3.35;68.36
72798;BME280;61084;55.816;37.036;2022-10-16T00:45:02;100716.13;;;3.33;68.42
72798;BME280;61084;55.816;37.036;2022-10-16T00:47:39;100710.06;;;3.31;67.92
72798;BME280;61084;55.816;37.036;2022-10-16T00:50:09;100719.59;;;3.27;67.94
72798;BME280;61084;55.816;37.036;2022-10-16T00:52:39;100720.47;;;3.25;67.72
72798;BME280;61084;55.816;37.036;2022-10-16T00:55:09;100725.66;;;3.23;68.15
72798;BME280;61084;55.816;37.036;2022-10-16T00:57:36;100717.88;;;3.20;67.98
72798;BME280;61084;55.816;37.036;2022-10-16T01:00:03;100722.19;;;3.18;68.46
72798;BME280;61084;55.816;37.036;2022-10-16T01:02:30;100721.34;;;3.16;68.46
72798;BME280;61084;55.816;37.036;2022-10-16T01:04:56;100723.94;;;3.16;68.02
72798;BME280;61084;55.816;37.036;2022-10-16T01:12:50;100729.13;;;3.12;68.61
72798;BME280;61084;55.816;37.036;2022-10-16T01:17:58;100727.41;;;3.08;68.47
72798;BME280;61084;55.816;37.036;2022-10-16T01:20:30;100733.47;;;3.07;68.64
72798;BME280;61084;55.816;37.036;2022-10-16T01:28:29;100733.47;;;2.99;68.53
72798;BME280;61084;55.816;37.036;2022-10-16T01:31:00;100735.19;;;2.98;68.83
72798;BME280;61084;55.816;37.036;2022-10-16T01:33:45;100739.53;;;2.96;68.95
72798;BME280;61084;55.816;37.036;2022-10-16T01:36:20;100736.06;;;2.93;68.55
72798;BME280;61084;55.816;37.036;2022-10-16T01:38:47;100737.81;;;2.92;69.00
72798;BME280;61084;55.816;37.036;2022-10-16T01:41:33;100744.72;;;2.90;68.91
72798;BME280;61084;55.816;37.036;2022-10-16T01:44:19;100738.66;;;2.88;68.49
72798;BME280;61084;55.816;37.036;2022-10-16T01:46:48;100735.22;;;2.85;68.84
72798;BME280;61084;55.816;37.036;2022-10-16T01:49:16;100735.22;;;2.86;68.94
72798;BME280;61084;55.816;37.036;2022-10-16T01:51:43;100734.34;;;2.87;68.72
72798;BME280;61084;55.816;37.036;2022-10-16T01:54:11;100736.94;;;2.89;69.15
72798;BME280;61084;55.816;37.036;2022-10-16T01:56:39;100741.25;;;2.91;69.16
72798;BME280;61084;55.816;37.036;2022-10-16T01:59:14;100745.59;;;2.92;69.16
72798;BME280;61084;55.816;37.036;2022-10-16T02:01:45;100741.25;;;2.90;68.80
72798;BME280;61084;55.816;37.036;2022-10-16T02:04:20;100737.81;;;2.88;69.02
72798;BME280;61084;55.816;37.036;2022-10-16T02:06:46;100740.38;;;2.88;68.95
72798;BME280;61084;55.816;37.036;2022-10-16T02:09:13;100747.31;;;2.87;69.17
72798;BME280;61084;55.816;37.036;2022-10-16T02:11:41;100746.47;;;2.87;68.49
72798;BME280;61084;55.816;37.036;2022-10-16T02:14:07;100747.31;;;2.86;68.60
72798;BME280;61084;55.816;37.036;2022-10-16T02:16:44;100749.88;;;2.83;68.49
72798;BME280;61084;55.816;37.036;2022-10-16T02:19:14;100747.28;;;2.83;68.94
72798;BME280;61084;55.816;37.036;2022-10-16T02:21:56;100755.09;;;2.80;68.58
72798;BME280;61084;55.816;37.036;2022-10-16T02:27:00;100755.09;;;2.80;68.77
72798;BME280;61084;55.816;37.036;2022-10-16T02:29:29;100757.69;;;2.80;68.84
72798;BME280;61084;55.816;37.036;2022-10-16T02:31:59;100753.38;;;2.80;68.91
72798;BME280;61084;55.816;37.036;2022-10-16T02:34:27;100762.88;;;2.80;69.00
72798;BME280;61084;55.816;37.036;2022-10-16T02:36:55;100756.81;;;2.79;69.22
72798;BME280;61084;55.816;37.036;2022-10-16T02:39:23;100761.13;;;2.79;69.41
72798;BME280;61084;55.816;37.036;2022-10-16T02:41:49;100752.50;;;2.77;69.44
72798;BME280;61084;55.816;37.036;2022-10-16T02:44:15;100755.97;;;2.76;69.25
72798;BME280;61084;55.816;37.036;2022-10-16T02:46:41;100751.63;;;2.75;69.16
72798;BME280;61084;55.816;37.036;2022-10-16T02:49:07;100756.81;;;2.78;69.59
72798;BME280;61084;55.816;37.036;2022-10-16T02:51:32;100760.28;;;2.78;69.10
72798;BME280;61084;55.816;37.036;2022-10-16T02:53:58;100755.94;;;2.77;69.62
72798;BME280;61084;55.816;37.036;2022-10-16T02:56:24;100757.69;;;2.77;69.15
72798;BME280;61084;55.816;37.036;2022-10-16T02:58:49;100759.41;;;2.75;69.66
72798;BME280;61084;55.816;37.036;2022-10-16T03:01:15;100762.00;;;2.75;69.53
72798;BME280;61084;55.816;37.036;2022-10-16T03:03:42;100760.25;;;2.72;69.10
72798;BME280;61084;55.816;37.036;2022-10-16T03:06:08;100768.91;;;2.71;69.16
72798;BME280;61084;55.816;37.036;2022-10-16T03:08:34;100768.91;;;2.70;68.99
72798;BME280;61084;55.816;37.036;2022-10-16T03:10:59;100761.13;;;2.67;69.11
72798;BME280;61084;55.816;37.036;2022-10-16T03:13:27;100765.44;;;2.68;69.13
72798;BME280;61084;55.816;37.036;2022-10-16T03:15:53;100771.50;;;2.65;69.25
72798;BME280;61084;55.816;37.036;2022-10-16T03:18:19;100777.53;;;2.66;69.37
72798;BME280;61084;55.816;37.036;2022-10-16T03:20:45;100782.72;;;2.61;69.39
72798;BME280;61084;55.816;37.036;2022-10-16T03:23:11;100777.53;;;2.61;69.13
72798;BME280;61084;55.816;37.036;2022-10-16T03:25:37;100781.00;;;2.59;69.51
72798;BME280;61084;55.816;37.036;2022-10-16T03:28:03;100780.97;;;2.57;69.52
72798;BME280;61084;55.816;37.036;2022-10-16T03:30:29;100782.72;;;2.55;69.50
72798;BME280;61084;55.816;37.036;2022-10-16T03:32:55;100779.25;;;2.55;69.00
72798;BME280;61084;55.816;37.036;2022-10-16T03:35:22;100786.19;;;2.54;69.14
72798;BME280;61084;55.816;37.036;2022-10-16T03:37:48;100781.84;;;2.53;69.02
72798;BME280;61084;55.816;37.036;2022-10-16T03:40:14;100786.16;;;2.53;69.70
72798;BME280;61084;55.816;37.036;2022-10-16T03:42:42;100790.50;;;2.52;69.59
72798;BME280;61084;55.816;37.036;2022-10-16T03:45:08;100792.22;;;2.52;69.69
72798;BME280;61084;55.816;37.036;2022-10-16T03:47:34;100788.75;;;2.50;69.64
72798;BME280;61084;55.816;37.036;2022-10-16T03:49:59;100789.63;;;2.52;69.85
72798;BME280;61084;55.816;37.036;2022-10-16T03:52:50;100795.66;;;2.51;69.84
72798;BME280;61084;55.816;37.036;2022-10-16T03:55:16;100788.75;;;2.48;69.77
72798;BME280;61084;55.816;37.036;2022-10-16T03:57:42;100785.28;;;2.46;69.91
72798;BME280;61084;55.816;37.036;2022-10-16T04:00:08;100791.31;;;2.44;69.73
72798;BME280;61084;55.816;37.036;2022-10-16T04:02:38;100788.75;;;2.45;69.42
72798;BME280;61084;55.816;37.036;2022-10-16T04:05:04;100787.03;;;2.46;69.59
72798;BME280;61084;55.816;37.036;2022-10-16T04:07:30;100789.63;;;2.47;69.67
72798;BME280;61084;55.816;37.036;2022-10-16T04:09:56;100789.63;;;2.46;69.62
72798;BME280;61084;55.816;37.036;2022-10-16T04:12:25;100792.22;;;2.46;69.62
72798;BME280;61084;55.816;37.036;2022-10-16T04:14:51;100789.63;;;2.46;69.50
72798;BME280;61084;55.816;37.036;2022-10-16T04:17:17;100799.97;;;2.44;69.61
72798;BME280;61084;55.816;37.036;2022-10-16T04:19:42;100793.94;;;2.45;69.36
72798;BME280;61084;55.816;37.036;2022-10-16T04:22:08;100793.06;;;2.45;69.47
72798;BME280;61084;55.816;37.036;2022-10-16T04:24:34;100795.66;;;2.45;69.88
72798;BME280;61084;55.816;37.036;2022-10-16T04:27:00;100792.19;;;2.44;69.91
72798;BME280;61084;55.816;37.036;2022-10-16T04:29:25;100800.84;;;2.43;69.63
72798;BME280;61084;55.816;37.036;2022-10-16T04:31:51;100804.28;;;2.47;69.74
72798;BME280;61084;55.816;37.036;2022-10-16T04:34:17;100800.84;;;2.51;69.99
72798;BME280;61084;55.816;37.036;2022-10-16T04:36:43;100801.72;;;2.50;69.94
72798;BME280;61084;55.816;37.036;2022-10-16T04:39:08;100801.72;;;2.54;70.12
72798;BME280;61084;55.816;37.036;2022-10-16T04:41:34;100803.47;;;2.58;69.75
72798;BME280;61084;55.816;37.036;2022-10-16T04:44:00;100804.31;;;2.62;70.10
72798;BME280;61084;55.816;37.036;2022-10-16T04:46:26;100803.47;;;2.67;69.89
72798;BME280;61084;55.816;37.036;2022-10-16T04:48:51;100800.88;;;2.69;70.34
72798;BME280;61084;55.816;37.036;2022-10-16T04:51:17;100803.47;;;2.73;70.19
72798;BME280;61084;55.816;37.036;2022-10-16T04:53:44;100804.34;;;2.75;70.32
72798;BME280;61084;55.816;37.036;2022-10-16T04:56:10;100812.13;;;2.80;70.30
72798;BME280;61084;55.816;37.036;2022-10-16T04:58:35;100802.63;;;2.85;70.07
72798;BME280;61084;55.816;37.036;2022-10-16T05:01:01;100812.13;;;2.90;70.00
72798;BME280;61084;55.816;37.036;2022-10-16T05:03:27;100796.56;;;2.96;70.18
72798;BME280;61084;55.816;37.036;2022-10-16T05:05:53;100805.22;;;3.03;70.23
72798;BME280;61084;55.816;37.036;2022-10-16T05:08:18;100804.34;;;3.05;69.95
72798;BME280;61084;55.816;37.036;2022-10-16T05:10:44;100810.41;;;3.11;70.43
72798;BME280;61084;55.816;37.036;2022-10-16T05:13:11;100804.34;;;3.15;69.87
72798;BME280;61084;55.816;37.036;2022-10-16T05:15:37;100811.25;;;3.20;70.18
72798;BME280;61084;55.816;37.036;2022-10-16T05:18:03;100816.44;;;3.28;70.35
72798;BME280;61084;55.816;37.036;2022-10-16T05:20:29;100815.59;;;3.35;70.16
72798;BME280;61084;55.816;37.036;2022-10-16T05:22:55;100813.84;;;3.41;70.41
72798;BME280;61084;55.816;37.036;2022-10-16T05:25:21;100819.00;;;3.46;70.18
72798;BME280;61084;55.816;37.036;2022-10-16T05:27:47;100818.16;;;3.51;70.27
72798;BME280;61084;55.816;37.036;2022-10-16T05:30:15;100814.69;;;3.58;70.30
72798;BME280;61084;55.816;37.036;2022-10-16T05:32:41;100812.06;;;3.67;70.05
72798;BME280;61084;55.816;37.036;2022-10-16T05:35:07;100820.69;;;3.77;70.06
72798;BME280;61084;55.816;37.036;2022-10-16T05:37:33;100811.16;;;3.82;70.08
72798;BME280;61084;55.816;37.036;2022-10-16T05:39:59;100820.66;;;3.91;69.97
72798;BME280;61084;55.816;37.036;2022-10-16T05:42:24;100816.28;;;3.99;70.05
72798;BME280;61084;55.816;37.036;2022-10-16T05:44:50;100823.19;;;4.06;70.23
72798;BME280;61084;55.816;37.036;2022-10-16T05:47:16;100821.41;;;4.14;70.15
72798;BME280;61084;55.816;37.036;2022-10-16T05:49:42;100826.56;;;4.23;69.67
72798;BME280;61084;55.816;37.036;2022-10-16T05:52:07;100834.34;;;4.30;70.06
72798;BME280;61084;55.816;37.036;2022-10-16T05:54:33;100831.69;;;4.38;69.85
72798;BME280;61084;55.816;37.036;2022-10-16T05:56:59;100833.41;;;4.48;69.78
72798;BME280;61084;55.816;37.036;2022-10-16T05:59:24;100828.13;;;4.60;69.86
72798;BME280;61084;55.816;37.036;2022-10-16T06:01:50;100840.22;;;4.67;69.49
72798;BME280;61084;55.816;37.036;2022-10-16T06:04:16;100832.38;;;4.76;69.53
72798;BME280;61084;55.816;37.036;2022-10-16T06:06:42;100832.28;;;4.84;69.35
72798;BME280;61084;55.816;37.036;2022-10-16T06:09:09;100828.75;;;4.92;69.19
72798;BME280;61084;55.816;37.036;2022-10-16T06:11:36;100826.09;;;5.01;69.25
72798;BME280;61084;55.816;37.036;2022-10-16T06:14:02;100828.66;;;5.07;68.41
72798;BME280;61084;55.816;37.036;2022-10-16T06:16:36;100829.47;;;5.12;68.77
72798;BME280;61084;55.816;37.036;2022-10-16T06:19:03;100827.69;;;5.20;68.31
72798;BME280;61084;55.816;37.036;2022-10-16T06:21:32;100826.72;;;5.32;68.72
72798;BME280;61084;55.816;37.036;2022-10-16T06:23:58;100830.09;;;5.43;68.78
72798;BME280;61084;55.816;37.036;2022-10-16T06:26:27;100834.31;;;5.53;68.44
72798;BME280;61084;55.816;37.036;2022-10-16T06:28:58;100827.28;;;5.63;68.80
72798;BME280;61084;55.816;37.036;2022-10-16T06:31:24;100827.22;;;5.72;68.16
72798;BME280;61084;55.816;37.036;2022-10-16T06:33:53;100829.69;;;5.82;68.35
72798;BME280;61084;55.816;37.036;2022-10-16T06:36:19;100831.34;;;5.92;67.71
72798;BME280;61084;55.816;37.036;2022-10-16T06:38:46;100837.28;;;6.03;67.85
72798;BME280;61084;55.816;37.036;2022-10-16T06:41:14;100834.53;;;6.16;67.88
72798;BME280;61084;55.816;37.036;2022-10-16T06:43:40;100838.78;;;6.24;67.43
72798;BME280;61084;55.816;37.036;2022-10-16T06:46:09;100837.81;;;6.31;66.98
72798;BME280;61084;55.816;37.036;2022-10-16T06:48:36;100835.13;;;6.37;67.03
72798;BME280;61084;55.816;37.036;2022-10-16T06:51:09;100831.56;;;6.46;66.95
72798;BME280;61084;55.816;37.036;2022-10-16T06:53:37;100831.41;;;6.56;66.42
72798;BME280;61084;55.816;37.036;2022-10-16T06:56:22;100833.88;;;6.67;66.23
72798;BME280;61084;55.816;37.036;2022-10-16T06:58:49;100835.41;;;6.80;66.70
72798;BME280;61084;55.816;37.036;2022-10-16T07:01:17;100837.88;;;6.91;66.45
72798;BME280;61084;55.816;37.036;2022-10-16T07:03:45;100836.00;;;6.99;66.32
72798;BME280;61084;55.816;37.036;2022-10-16T07:06:13;100834.06;;;7.10;66.42
72798;BME280;61084;55.816;37.036;2022-10-16T07:08:41;100836.66;;;7.13;65.91
72798;BME280;61084;55.816;37.036;2022-10-16T07:11:09;100844.34;;;7.22;65.28
72798;BME280;61084;55.816;37.036;2022-10-16T07:13:37;100839.78;;;7.34;65.57
72798;BME280;61084;55.816;37.036;2022-10-16T07:16:07;100840.41;;;7.47;65.09
72798;BME280;61084;55.816;37.036;2022-10-16T07:18:33;100843.66;;;7.59;65.54
72798;BME280;61084;55.816;37.036;2022-10-16T07:21:04;100847.03;;;7.68;65.23
72798;BME280;61084;55.816;37.036;2022-10-16T07:23:30;100845.06;;;7.79;65.22
72798;BME280;61084;55.816;37.036;2022-10-16T07:25:56;100850.06;;;7.91;65.16
72798;BME280;61084;55.816;37.036;2022-10-16T07:28:22;100847.19;;;8.04;65.11
72798;BME280;61084;55.816;37.036;2022-10-16T07:30:48;100850.47;;;8.15;64.63
72798;BME280;61084;55.816;37.036;2022-10-16T07:33:14;100852.00;;;8.27;64.28
72798;BME280;61084;55.816;37.036;2022-10-16T07:35:53;100862.22;;;8.38;63.79
72798;BME280;61084;55.816;37.036;2022-10-16T07:38:20;100856.84;;;8.45;63.43
72798;BME280;61084;55.816;37.036;2022-10-16T07:40:47;100854.16;;;8.50;63.87
72798;BME280;61084;55.816;37.036;2022-10-16T07:43:13;100860.13;;;8.56;63.29
72798;BME280;61084;55.816;37.036;2022-10-16T07:45:49;100851.25;;;8.63;63.17
72798;BME280;61084;55.816;37.036;2022-10-16T07:48:17;100853.69;;;8.71;63.71
72798;BME280;61084;55.816;37.036;2022-10-16T07:50:43;100846.50;;;8.79;63.23
72798;BME280;61084;55.816;37.036;2022-10-16T07:53:10;100848.84;;;8.91;62.81
72798;BME280;61084;55.816;37.036;2022-10-16T07:55:36;100847.75;;;9.01;62.65
72798;BME280;61084;55.816;37.036;2022-10-16T07:58:03;100849.09;;;9.17;62.82
72798;BME280;61084;55.816;37.036;2022-10-16T08:00:29;100844.38;;;9.31;62.78
72798;BME280;61084;55.816;37.036;2022-10-16T08:02:54;100844.16;;;9.40;62.58
72798;BME280;61084;55.816;37.036;2022-10-16T08:05:22;100843.03;;;9.50;62.26
72798;BME280;61084;55.816;37.036;2022-10-16T08:07:49;100847.16;;;9.60;61.12
72798;BME280;61084;55.816;37.036;2022-10-16T08:10:17;100837.34;;;9.67;62.44
72798;BME280;61084;55.816;37.036;2022-10-16T08:12:43;100840.75;;;9.70;62.14
72798;BME280;61084;55.816;37.036;2022-10-16T08:15:09;100841.44;;;9.78;60.80
72798;BME280;61084;55.816;37.036;2022-10-16T08:17:35;100839.41;;;9.88;61.10
72798;BME280;61084;55.816;37.036;2022-10-16T08:20:01;100843.47;;;10.00;60.78
72798;BME280;61084;55.816;37.036;2022-10-16T08:22:28;100836.34;;;10.03;60.45
72798;BME280;61084;55.816;37.036;2022-10-16T08:24:55;100836.09;;;10.14;60.33
72798;BME280;61084;55.816;37.036;2022-10-16T08:27:20;100829.78;;;10.21;61.04
72798;BME280;61084;55.816;37.036;2022-10-16T08:29:48;100839.19;;;10.28;60.85
72798;BME280;61084;55.816;37.036;2022-10-16T08:32:14;100832.91;;;10.33;60.84
72798;BME280;61084;55.816;37.036;2022-10-16T08:34:40;100835.19;;;10.44;60.32
72798;BME280;61084;55.816;37.036;2022-10-16T08:37:06;100832.38;;;10.51;59.97
72798;BME280;61084;55.816;37.036;2022-10-16T08:39:33;100833.03;;;10.58;59.49
72798;BME280;61084;55.816;37.036;2022-10-16T08:44:42;100833.34;;;10.77;59.85
72798;BME280;61084;55.816;37.036;2022-10-16T08:47:20;100831.22;;;10.88;59.68
72798;BME280;61084;55.816;37.036;2022-10-16T08:49:59;100821.25;;;10.99;59.19
72798;BME280;61084;55.816;37.036;2022-10-16T08:52:32;100827.94;;;11.09;58.12
72798;BME280;61084;55.816;37.036;2022-10-16T08:54:59;100832.72;;;11.24;58.92
72798;BME280;61084;55.816;37.036;2022-10-16T08:57:25;100822.72;;;11.33;57.78
72798;BME280;61084;55.816;37.036;2022-10-16T08:59:53;100825.72;;;11.49;58.14
72798;BME280;61084;55.816;37.036;2022-10-16T09:02:29;100819.88;;;11.66;58.27
72798;BME280;61084;55.816;37.036;2022-10-16T09:11:01;100826.84;;;11.93;57.70
72798;BME280;61084;55.816;37.036;2022-10-16T09:16:38;100822.63;;;12.12;56.91
72798;BME280;61084;55.816;37.036;2022-10-16T09:21:30;100820.38;;;12.26;56.00
72798;BME280;61084;55.816;37.036;2022-10-16T09:23:59;100815.91;;;12.28;55.59
72798;BME280;61084;55.816;37.036;2022-10-16T09:26:33;100822.66;;;12.35;55.44
72798;BME280;61084;55.816;37.036;2022-10-16T09:28:59;100821.50;;;12.42;55.56
72798;BME280;61084;55.816;37.036;2022-10-16T09:31:25;100814.28;;;12.47;53.78
72798;BME280;61084;55.816;37.036;2022-10-16T09:33:58;100811.22;;;12.58;56.52
72798;BME280;61084;55.816;37.036;2022-10-16T09:36:28;100806.50;;;12.66;54.71
72798;BME280;61084;55.816;37.036;2022-10-16T09:39:08;100799.84;;;12.79;55.68
72798;BME280;61084;55.816;37.036;2022-10-16T09:41:36;100802.19;;;12.86;54.72
72798;BME280;61084;55.816;37.036;2022-10-16T09:44:05;100802.56;;;12.99;54.24
72798;BME280;61084;55.816;37.036;2022-10-16T09:46:35;100791.56;;;13.11;54.90
72798;BME280;61084;55.816;37.036;2022-10-16T09:49:26;100791.94;;;13.22;55.04
72798;BME280;61084;55.816;37.036;2022-10-16T09:52:13;100789.09;;;13.28;53.78
72798;BME280;61084;55.816;37.036;2022-10-16T09:54:52;100789.63;;;13.36;54.03
72798;BME280;61084;55.816;37.036;2022-10-16T09:57:19;100795.28;;;13.47;54.25
72798;BME280;61084;55.816;37.036;2022-10-16T09:59:50;100791.41;;;13.56;53.37
72798;BME280;61084;55.816;37.036;2022-10-16T10:02:36;100784.16;;;13.61;52.57
72798;BME280;61084;55.816;37.036;2022-10-16T10:05:18;100790.81;;;13.70;53.11
72798;BME280;61084;55.816;37.036;2022-10-16T10:07:45;100789.56;;;13.78;54.86
72798;BME280;61084;55.816;37.036;2022-10-16T10:10:30;100789.28;;;13.84;53.89
72798;BME280;61084;55.816;37.036;2022-10-16T10:12:57;100784.88;;;13.85;52.91
72798;BME280;61084;55.816;37.036;2022-10-16T10:15:24;100788.03;;;13.93;52.27
72798;BME280;61084;55.816;37.036;2022-10-16T10:17:54;100773.75;;;13.97;53.86
72798;BME280;61084;55.816;37.036;2022-10-16T10:20:29;100782.34;;;14.02;47.93
72798;BME280;61084;55.816;37.036;2022-10-16T10:22:56;100779.69;;;14.02;53.03
72798;BME280;61084;55.816;37.036;2022-10-16T10:33:29;100775.56;;;14.15;51.10
72798;BME280;61084;55.816;37.036;2022-10-16T10:39:03;100766.84;;;14.33;52.55
72798;BME280;61084;55.816;37.036;2022-10-16T10:50:07;100772.34;;;14.66;47.34
72798;BME280;61084;55.816;37.036;2022-10-16T10:58:39;100765.66;;;14.76;49.95
72798;BME280;61084;55.816;37.036;2022-10-16T11:01:12;100758.38;;;14.81;50.46
72798;BME280;61084;55.816;37.036;2022-10-16T11:06:48;100763.44;;;14.85;49.89
72798;BME280;61084;55.816;37.036;2022-10-16T11:09:20;100768.34;;;14.93;49.16
72798;BME280;61084;55.816;37.036;2022-10-16T11:12:00;100754.81;;;14.99;52.45
72798;BME280;61084;55.816;37.036;2022-10-16T11:14:42;100769.59;;;15.03;51.22
72798;BME280;61084;55.816;37.036;2022-10-16T11:17:25;100759.88;;;15.03;50.93
72798;BME280;61084;55.816;37.036;2022-10-16T11:20:00;100753.03;;;14.99;47.28
72798;BME280;61084;55.816;37.036;2022-10-16T11:22:36;100760.84;;;15.02;48.75
72798;BME280;61084;55.816;37.036;2022-10-16T11:25:16;100766.44;;;15.14;49.45
72798;BME280;61084;55.816;37.036;2022-10-16T11:30:22;100765.13;;;15.22;48.55
72798;BME280;61084;55.816;37.036;2022-10-16T11:33:14;100756.78;;;15.30;49.08
72798;BME280;61084;55.816;37.036;2022-10-16T11:41:42;100768.47;;;15.43;50.22
72798;BME280;61084;55.816;37.036;2022-10-16T11:46:48;100765.28;;;15.36;49.08
72798;BME280;61084;55.816;37.036;2022-10-16T11:49:22;100761.97;;;15.50;48.51
72798;BME280;61084;55.816;37.036;2022-10-16T11:52:00;100761.50;;;15.59;48.41
72798;BME280;61084;55.816;37.036;2022-10-16T11:54:55;100764.59;;;15.67;48.16
72798;BME280;61084;55.816;37.036;2022-10-16T11:57:31;100760.75;;;15.72;47.61
72798;BME280;61084;55.816;37.036;2022-10-16T12:00:10;100749.25;;;15.73;49.45
72798;BME280;61084;55.816;37.036;2022-10-16T12:06:34;100756.75;;;15.65;48.27
72798;BME280;61084;55.816;37.036;2022-10-16T12:09:03;100751.44;;;15.65;48.10
72798;BME280;61084;55.816;37.036;2022-10-16T12:11:36;100750.16;;;15.72;47.63
72798;BME280;61084;55.816;37.036;2022-10-16T12:17:22;100758.09;;;15.90;49.06
72798;BME280;61084;55.816;37.036;2022-10-16T12:20:00;100753.13;;;15.83;48.28
72798;BME280;61084;55.816;37.036;2022-10-16T12:22:30;100747.91;;;15.82;48.10
72798;BME280;61084;55.816;37.036;2022-10-16T12:25:00;100747.81;;;15.83;47.88
72798;BME280;61084;55.816;37.036;2022-10-16T12:27:31;100745.88;;;15.87;47.67
72798;BME280;61084;55.816;37.036;2022-10-16T12:30:15;100736.06;;;15.89;48.15
72798;BME280;61084;55.816;37.036;2022-10-16T12:32:56;100740.75;;;15.84;47.30
72798;BME280;61084;55.816;37.036;2022-10-16T12:35:31;100739.03;;;15.83;47.14
72798;BME280;61084;55.816;37.036;2022-10-16T12:38:06;100740.81;;;15.82;46.80
72798;BME280;61084;55.816;37.036;2022-10-16T12:41:05;100740.53;;;15.71;46.86
72798;BME280;61084;55.816;37.036;2022-10-16T12:43:45;100746.94;;;15.67;47.04
72798;BME280;61084;55.816;37.036;2022-10-16T12:48:43;100746.44;;;15.59;47.96
72798;BME280;61084;55.816;37.036;2022-10-16T12:54:19;100741.56;;;15.35;46.76
72798;BME280;61084;55.816;37.036;2022-10-16T13:00:10;100743.19;;;15.20;47.26
72798;BME280;61084;55.816;37.036;2022-10-16T13:03:04;100743.56;;;15.13;48.05
72798;BME280;61084;55.816;37.036;2022-10-16T13:06:15;100738.63;;;15.05;47.49
72798;BME280;61084;55.816;37.036;2022-10-16T13:20:30;100737.84;;;14.50;47.69
72798;BME280;61084;55.816;37.036;2022-10-16T13:23:04;100736.84;;;14.34;48.16
72798;BME280;61084;55.816;37.036;2022-10-16T13:28:22;100739.50;;;14.14;48.29
72798;BME280;61084;55.816;37.036;2022-10-16T13:30:59;100733.09;;;14.01;48.50
72798;BME280;61084;55.816;37.036;2022-10-16T13:34:01;100734.53;;;13.89;49.30
72798;BME280;61084;55.816;37.036;2022-10-16T13:36:42;100738.44;;;13.81;48.80
72798;BME280;61084;55.816;37.036;2022-10-16T13:39:19;100729.97;;;13.73;48.89
72798;BME280;61084;55.816;37.036;2022-10-16T13:42:10;100738.25;;;13.65;49.08
72798;BME280;61084;55.816;37.036;2022-10-16T13:44:50;100731.50;;;13.58;49.26
72798;BME280;61084;55.816;37.036;2022-10-16T13:47:29;100725.66;;;13.51;49.38
72798;BME280;61084;55.816;37.036;2022-10-16T13:50:04;100721.44;;;13.47;49.10
72798;BME280;61084;55.816;37.036;2022-10-16T13:52:31;100731.50;;;13.38;49.62
72798;BME280;61084;55.816;37.036;2022-10-16T13:54:58;100724.06;;;13.27;50.06
72798;BME280;61084;55.816;37.036;2022-10-16T13:57:24;100723.41;;;13.22;49.55
72798;BME280;61084;55.816;37.036;2022-10-16T13:59:53;100727.44;;;13.11;49.64
72798;BME280;61084;55.816;37.036;2022-10-16T14:02:28;100724.28;;;13.01;49.90
72798;BME280;61084;55.816;37.036;2022-10-16T14:05:02;100720.31;;;12.91;49.99
72798;BME280;61084;55.816;37.036;2022-10-16T14:07:32;100726.69;;;12.85;50.12
72798;BME280;61084;55.816;37.036;2022-10-16T14:10:27;100732.34;;;12.76;50.35
72798;BME280;61084;55.816;37.036;2022-10-16T14:13:02;100727.38;;;12.69;50.39
72798;BME280;61084;55.816;37.036;2022-10-16T14:15:31;100730.19;;;12.64;50.53
72798;BME280;61084;55.816;37.036;2022-10-16T14:17:59;100733.06;;;12.58;50.58
72798;BME280;61084;55.816;37.036;2022-10-16T14:20:34;100730.81;;;12.49;50.89
72798;BME280;61084;55.816;37.036;2022-10-16T14:23:31;100730.19;;;12.43;50.92
72798;BME280;61084;55.816;37.036;2022-10-16T14:26:12;100729.81;;;12.30;50.98
72798;BME280;61084;55.816;37.036;2022-10-16T14:28:48;100729.28;;;12.21;51.39
72798;BME280;61084;55.816;37.036;2022-10-16T14:31:35;100730.44;;;12.13;51.28
72798;BME280;61084;55.816;37.036;2022-10-16T14:34:03;100731.78;;;12.02;51.45
72798;BME280;61084;55.816;37.036;2022-10-16T14:36:40;100729.41;;;11.94;51.54
72798;BME280;61084;55.816;37.036;2022-10-16T14:39:17;100728.06;;;11.84;51.49
72798;BME280;61084;55.816;37.036;2022-10-16T14:41:49;100737.06;;;11.77;51.65